Time;durP1;ratioP1;P1;durP2;ratioP2;P2;SDS_P1;SDS_P2;PMS_P1;PMS_P2;Temp;Humidity;BMP_temperature;BMP_pressure;BME280_temperature;BME280_humidity;BME280_pressure;Samples;Min_cycle;Max_cycle;Signal;HPM_P1;HPM_P2
2022/06/10 00:00:47;;;;;;;11.38;1.20;;;15.00;99.90;;;;;;5003674;28;20421;-58
2022/06/10 00:03:15;;;;;;;4.50;1.45;;;15.00;99.90;;;;;;4997578;28;20018;-56
2022/06/10 00:05:47;;;;;;;6.10;1.90;;;15.00;99.90;;;;;;4999866;28;20029;-57
2022/06/10 00:08:17;;;;;;;5.80;1.50;;;15.00;99.90;;;;;;4980980;28;20117;-55
2022/06/10 00:10:45;;;;;;;5.88;1.58;;;15.00;99.90;;;;;;5003811;28;20076;-57
2022/06/10 00:13:12;;;;;;;4.72;1.50;;;15.00;99.90;;;;;;4987122;28;20356;-57
2022/06/10 00:15:39;;;;;;;5.68;1.80;;;15.00;99.90;;;;;;4993017;28;20029;-57
2022/06/10 00:18:04;;;;;;;4.65;2.17;;;15.00;99.90;;;;;;5002279;28;20565;-57
2022/06/10 00:20:31;;;;;;;8.60;1.80;;;15.00;99.90;;;;;;4994975;28;20125;-58
2022/06/10 00:22:58;;;;;;;8.23;2.08;;;14.90;99.90;;;;;;4993476;28;20462;-57
2022/06/10 00:25:24;;;;;;;7.13;1.55;;;14.90;99.90;;;;;;4989211;28;20460;-58
2022/06/10 00:27:51;;;;;;;5.63;1.45;;;14.90;99.90;;;;;;4985735;28;20074;-58
2022/06/10 00:30:19;;;;;;;7.50;2.35;;;14.80;99.90;;;;;;4986522;28;20559;-57
2022/06/10 00:32:45;;;;;;;4.28;1.10;;;14.90;99.90;;;;;;4988061;28;20109;-56
2022/06/10 00:35:11;;;;;;;2.50;1.00;;;14.80;99.90;;;;;;4984966;28;20122;-57
2022/06/10 00:37:37;;;;;;;2.83;0.98;;;14.90;99.90;;;;;;4989075;28;20482;-57
2022/06/10 00:40:05;;;;;;;4.78;0.73;;;14.80;99.90;;;;;;4984190;28;20045;-57
2022/06/10 00:42:31;;;;;;;6.93;0.80;;;14.90;99.90;;;;;;4983754;28;20034;-56
2022/06/10 00:44:56;;;;;;;2.80;1.08;;;14.80;99.90;;;;;;4991595;28;20053;-57
2022/06/10 00:47:24;;;;;;;3.88;1.17;;;14.80;99.90;;;;;;4992499;28;20262;-57
2022/06/10 00:50:00;;;;;;;3.17;1.27;;;14.80;99.90;;;;;;4987356;28;20033;-57
2022/06/10 00:52:35;;;;;;;4.60;1.58;;;14.90;99.90;;;;;;4987589;28;20038;-57
2022/06/10 00:55:03;;;;;;;7.28;2.20;;;14.80;99.90;;;;;;4990389;28;20023;-58
2022/06/10 00:57:35;;;;;;;7.68;1.90;;;14.90;99.90;;;;;;4985315;28;20133;-58
2022/06/10 01:00:07;;;;;;;4.95;2.10;;;14.90;99.90;;;;;;4988775;28;20038;-57
2022/06/10 01:02:35;;;;;;;10.45;2.13;;;14.90;99.90;;;;;;4989384;28;20034;-57
2022/06/10 01:05:05;;;;;;;6.85;2.33;;;14.90;99.90;;;;;;4990974;28;20026;-57
2022/06/10 01:07:35;;;;;;;5.57;2.22;;;14.90;99.90;;;;;;4983662;28;20030;-57
2022/06/10 01:10:03;;;;;;;7.85;2.47;;;14.90;99.90;;;;;;4988271;28;20473;-57
2022/06/10 01:12:29;;;;;;;8.18;3.00;;;14.90;99.90;;;;;;4986799;28;20037;-57
2022/06/10 01:15:11;;;;;;;9.55;2.58;;;14.90;99.90;;;;;;4987192;28;20030;-57
2022/06/10 01:17:36;;;;;;;5.97;2.67;;;14.90;99.90;;;;;;4986692;28;20093;-57
2022/06/10 01:20:20;;;;;;;5.15;1.70;;;15.00;99.90;;;;;;4987153;28;20113;-57
2022/06/10 01:23:04;;;;;;;6.53;1.95;;;15.00;99.90;;;;;;4985485;28;20030;-57
2022/06/10 01:25:48;;;;;;;5.38;1.67;;;15.00;99.90;;;;;;4985649;28;20104;-58
2022/06/10 01:28:35;;;;;;;8.82;2.22;;;15.00;99.90;;;;;;4979647;28;20073;-57
2022/06/10 01:31:22;;;;;;;13.48;2.60;;;15.00;99.90;;;;;;4982061;28;20121;-58
2022/06/10 01:33:50;;;;;;;7.03;2.17;;;15.00;99.90;;;;;;4984036;28;20019;-58
2022/06/10 01:36:36;;;;;;;8.07;1.98;;;15.00;99.90;;;;;;4984877;28;20030;-58
2022/06/10 01:39:21;;;;;;;4.18;2.20;;;15.00;99.90;;;;;;4983745;28;20050;-57
2022/06/10 01:42:00;;;;;;;3.80;1.25;;;15.00;99.90;;;;;;4981205;28;20071;-57
2022/06/10 01:44:34;;;;;;;4.85;1.70;;;15.00;99.90;;;;;;4982477;28;20498;-57
2022/06/10 01:47:06;;;;;;;8.45;2.53;;;15.00;99.90;;;;;;4984670;28;20048;-57
2022/06/10 01:49:41;;;;;;;10.05;2.13;;;15.00;99.90;;;;;;4986547;28;20026;-57
2022/06/10 01:52:25;;;;;;;11.65;3.22;;;15.00;99.90;;;;;;4985768;28;20026;-57
2022/06/10 01:55:06;;;;;;;15.98;3.92;;;15.10;99.90;;;;;;4979733;28;20042;-58
2022/06/10 01:57:34;;;;;;;13.32;5.13;;;15.00;99.90;;;;;;4973515;28;20077;-58
2022/06/10 02:00:08;;;;;;;20.73;4.75;;;15.00;99.90;;;;;;4985873;28;20042;-58
2022/06/10 02:02:37;;;;;;;17.23;4.70;;;15.10;99.90;;;;;;4982048;28;20037;-58
2022/06/10 02:05:16;;;;;;;16.05;4.38;;;15.10;99.90;;;;;;4983494;28;20077;-57
2022/06/10 02:07:51;;;;;;;17.38;5.07;;;15.10;99.90;;;;;;4981223;28;20037;-57
2022/06/10 02:10:39;;;;;;;19.80;4.88;;;15.10;99.90;;;;;;4979898;28;20475;-58
2022/06/10 02:13:19;;;;;;;14.45;4.88;;;15.10;99.90;;;;;;4982867;28;20034;-57
2022/06/10 02:15:55;;;;;;;15.20;4.10;;;15.10;99.90;;;;;;4981410;28;20374;-56
2022/06/10 02:18:49;;;;;;;24.90;4.57;;;15.20;99.90;;;;;;4981159;28;20034;-57
2022/06/10 02:21:23;;;;;;;13.95;4.85;;;15.20;99.90;;;;;;4983364;28;20494;-56
2022/06/10 02:23:57;;;;;;;20.55;5.68;;;15.20;99.90;;;;;;4984677;28;20042;-57
2022/06/10 02:26:24;;;;;;;20.75;5.00;;;15.20;99.90;;;;;;4984794;28;20026;-57
2022/06/10 02:28:53;;;;;;;21.92;4.72;;;15.20;99.90;;;;;;4984750;28;20061;-57
2022/06/10 02:31:28;;;;;;;26.02;5.32;;;15.10;99.90;;;;;;4981044;28;20526;-58
2022/06/10 02:33:54;;;;;;;22.50;5.13;;;15.10;99.90;;;;;;4981877;28;20031;-57
2022/06/10 02:36:30;;;;;;;24.95;4.50;;;15.20;99.90;;;;;;4986187;28;20045;-56
2022/06/10 02:39:06;;;;;;;26.73;5.00;;;15.20;99.90;;;;;;4985216;28;20112;-57
2022/06/10 02:41:55;;;;;;;27.05;5.85;;;15.10;99.90;;;;;;4993743;28;20045;-57
2022/06/10 02:44:33;;;;;;;21.70;4.80;;;15.10;99.90;;;;;;4986078;28;20050;-56
2022/06/10 02:47:21;;;;;;;21.15;4.72;;;15.20;99.90;;;;;;4997044;28;20070;-56
2022/06/10 02:49:47;;;;;;;26.83;5.93;;;15.20;99.90;;;;;;4992809;28;20026;-56
2022/06/10 02:52:14;;;;;;;21.75;4.47;;;15.10;99.90;;;;;;4995097;28;20375;-56
2022/06/10 02:54:43;;;;;;;25.08;4.75;;;15.10;99.90;;;;;;4998557;28;20026;-57
2022/06/10 02:57:14;;;;;;;14.13;4.30;;;15.10;99.90;;;;;;5004071;28;20030;-58
2022/06/10 03:02:45;;;;;;;31.05;5.57;;;15.20;99.90;;;;;;4991837;28;20496;-57
2022/06/10 03:05:44;;;;;;;21.13;5.03;;;15.10;99.90;;;;;;5000788;28;20026;-57
2022/06/10 03:08:26;;;;;;;27.27;6.05;;;15.20;99.90;;;;;;5000162;28;20391;-57
2022/06/10 03:11:35;;;;;;;25.48;5.38;;;15.10;99.90;;;;;;5003705;28;20038;-58
2022/06/10 03:14:12;;;;;;;21.65;6.13;;;15.10;99.90;;;;;;4995853;28;20505;-56
2022/06/10 03:17:09;;;;;;;22.10;5.32;;;15.10;99.90;;;;;;4991846;28;20593;-56
2022/06/10 03:19:52;;;;;;;26.05;6.10;;;15.10;99.90;;;;;;4989324;28;20039;-57
2022/06/10 03:22:26;;;;;;;25.92;5.45;;;15.10;99.90;;;;;;4993206;28;20113;-57
2022/06/10 03:24:59;;;;;;;30.88;6.70;;;15.10;99.90;;;;;;4992878;28;20058;-59
2022/06/10 03:27:46;;;;;;;19.17;5.63;;;15.10;99.90;;;;;;4988960;28;20030;-57
2022/06/10 03:30:19;;;;;;;21.83;5.57;;;15.10;99.90;;;;;;4993880;28;20114;-57
2022/06/10 03:33:10;;;;;;;;;;;15.10;99.90;;;;;;4997241;28;20031;-57
2022/06/10 03:36:11;;;;;;;20.75;5.32;;;15.10;99.90;;;;;;4997616;28;19909;-57
2022/06/10 03:38:45;;;;;;;26.88;6.00;;;15.10;99.90;;;;;;4990571;28;20037;-57
2022/06/10 03:41:33;;;;;;;25.73;5.50;;;15.10;99.90;;;;;;4980056;28;20040;-55
2022/06/10 03:44:03;;;;;;;19.05;4.88;;;15.10;99.90;;;;;;4990871;28;20046;-58
2022/06/10 03:46:32;;;;;;;24.48;5.20;;;15.10;99.90;;;;;;4992659;28;20026;-58
2022/06/10 03:49:06;;;;;;;19.05;5.05;;;15.10;99.90;;;;;;4990345;28;20022;-59
2022/06/10 03:51:32;;;;;;;18.98;5.55;;;15.10;99.90;;;;;;4992201;28;20113;-58
2022/06/10 03:53:58;;;;;;;23.10;4.32;;;15.10;99.90;;;;;;4991527;28;20110;-58
2022/06/10 03:56:24;;;;;;;26.10;5.50;;;15.10;99.90;;;;;;4990402;28;20042;-57
2022/06/10 03:58:51;;;;;;;23.15;4.80;;;15.10;99.90;;;;;;4988912;28;20040;-57
2022/06/10 04:01:17;;;;;;;20.10;5.43;;;15.10;99.90;;;;;;4990433;28;20038;-58
2022/06/10 04:03:43;;;;;;;17.38;5.10;;;15.10;99.90;;;;;;4992198;28;20031;-58
2022/06/10 04:06:09;;;;;;;20.08;4.63;;;15.20;99.90;;;;;;4990010;28;20088;-58
2022/06/10 04:08:35;;;;;;;20.42;4.35;;;15.20;99.90;;;;;;4990589;28;20406;-58
2022/06/10 04:11:00;;;;;;;16.60;4.18;;;15.30;99.90;;;;;;4991101;28;20036;-58
2022/06/10 04:13:26;;;;;;;20.15;5.18;;;15.20;99.90;;;;;;4989911;28;20034;-58
2022/06/10 04:15:52;;;;;;;18.60;4.10;;;15.20;99.90;;;;;;4991821;28;20474;-58
2022/06/10 04:18:18;;;;;;;15.73;5.00;;;15.30;99.90;;;;;;4989613;28;20033;-58
2022/06/10 04:20:44;;;;;;;20.08;4.75;;;15.30;99.90;;;;;;4981786;28;20046;-57
2022/06/10 04:23:10;;;;;;;15.82;4.50;;;15.30;99.90;;;;;;4990007;28;20026;-58
2022/06/10 04:25:37;;;;;;;18.42;4.60;;;15.30;99.90;;;;;;4991365;28;20390;-59
2022/06/10 04:28:04;;;;;;;21.55;5.20;;;15.30;99.90;;;;;;4990855;28;20499;-59
2022/06/10 04:30:32;;;;;;;16.90;4.20;;;15.40;99.90;;;;;;4991760;28;20113;-58
2022/06/10 04:32:59;;;;;;;17.35;4.60;;;15.40;99.90;;;;;;4991254;28;20035;-58
2022/06/10 04:35:27;;;;;;;21.73;4.90;;;15.40;99.90;;;;;;4992472;28;20398;-57
2022/06/10 04:37:54;;;;;;;18.90;5.72;;;15.40;99.90;;;;;;4991465;28;20066;-57
2022/06/10 04:40:23;;;;;;;12.57;4.25;;;15.40;99.90;;;;;;4988888;28;20034;-59
2022/06/10 04:42:51;;;;;;;20.02;4.40;;;15.40;99.90;;;;;;4989833;28;20490;-59
2022/06/10 04:45:19;;;;;;;14.40;3.88;;;15.40;99.90;;;;;;4982976;28;20034;-57
2022/06/10 04:47:45;;;;;;;19.77;5.75;;;15.40;99.90;;;;;;4989923;28;20070;-58
2022/06/10 04:50:14;;;;;;;15.95;4.50;;;15.40;99.90;;;;;;4987870;28;20049;-58
2022/06/10 04:52:40;;;;;;;14.70;4.18;;;15.40;99.90;;;;;;4990871;28;20482;-58
2022/06/10 04:55:08;;;;;;;16.98;4.35;;;15.40;99.90;;;;;;4988052;28;20062;-58
2022/06/10 04:57:34;;;;;;;17.83;4.20;;;15.40;99.90;;;;;;4990618;28;20018;-58
2022/06/10 05:00:00;;;;;;;14.48;4.32;;;15.40;99.90;;;;;;4989368;28;20081;-58
2022/06/10 05:02:25;;;;;;;15.00;4.53;;;15.40;99.90;;;;;;4988823;28;20117;-58
2022/06/10 05:04:51;;;;;;;14.32;3.50;;;15.40;99.90;;;;;;4989979;28;20058;-58
2022/06/10 05:07:17;;;;;;;16.70;3.90;;;15.40;99.90;;;;;;4988526;28;20040;-58
2022/06/10 05:09:43;;;;;;;16.08;5.03;;;15.40;99.90;;;;;;4990928;28;20370;-57
2022/06/10 05:12:09;;;;;;;15.75;4.53;;;15.50;99.90;;;;;;4988381;28;20068;-57
2022/06/10 05:14:34;;;;;;;14.00;3.22;;;15.60;99.90;;;;;;4990278;28;20033;-57
2022/06/10 05:17:02;;;;;;;12.43;3.13;;;15.60;99.90;;;;;;4991085;28;20090;-57
2022/06/10 05:19:29;;;;;;;12.40;3.38;;;15.60;99.90;;;;;;4988582;28;20089;-57
2022/06/10 05:21:56;;;;;;;10.98;3.13;;;15.60;99.90;;;;;;4990420;28;20030;-58
2022/06/10 05:24:22;;;;;;;12.15;2.95;;;15.70;99.90;;;;;;4986643;28;20113;-58
2022/06/10 05:26:48;;;;;;;6.78;2.47;;;15.80;99.90;;;;;;4989577;28;20035;-58
2022/06/10 05:29:14;;;;;;;13.30;3.95;;;15.80;99.90;;;;;;4988103;28;20023;-58
2022/06/10 05:31:40;;;;;;;15.23;3.65;;;15.80;99.90;;;;;;4990239;28;20027;-59
2022/06/10 05:36:50;;;;;;;14.50;2.65;;;15.80;99.90;;;;;;4990018;28;20551;-58
2022/06/10 05:39:16;;;;;;;9.77;2.40;;;15.80;99.90;;;;;;4985938;28;20038;-58
2022/06/10 05:44:26;;;;;;;19.67;3.63;;;15.90;99.90;;;;;;4980074;28;20450;-58
2022/06/10 05:46:53;;;;;;;10.57;2.85;;;16.00;99.90;;;;;;4989660;28;20026;-58
2022/06/10 05:49:19;;;;;;;13.70;3.40;;;16.20;99.90;;;;;;4987505;28;20046;-58
2022/06/10 05:51:45;;;;;;;10.60;2.45;;;16.20;99.90;;;;;;4988451;28;20049;-58
2022/06/10 05:54:11;;;;;;;14.23;2.67;;;16.20;99.90;;;;;;4987539;28;20147;-57
2022/06/10 05:56:37;;;;;;;11.00;1.95;;;16.20;99.90;;;;;;4989643;28;20541;-57
2022/06/10 05:59:03;;;;;;;10.00;2.25;;;16.20;99.90;;;;;;4989629;28;20458;-57
2022/06/10 06:01:29;;;;;;;11.80;2.47;;;16.20;99.90;;;;;;4986112;28;20070;-58
2022/06/10 06:03:55;;;;;;;13.85;2.47;;;16.10;99.90;;;;;;4990064;28;20030;-59
2022/06/10 06:06:21;;;;;;;6.40;1.75;;;16.10;99.90;;;;;;4987337;28;20081;-59
2022/06/10 06:08:48;;;;;;;7.25;2.47;;;16.00;99.90;;;;;;4989268;28;20109;-58
2022/06/10 06:11:15;;;;;;;5.85;1.95;;;16.00;99.90;;;;;;4986210;28;20513;-58
2022/06/10 06:13:42;;;;;;;8.60;2.78;;;16.00;99.90;;;;;;4982543;28;20081;-59
2022/06/10 06:16:11;;;;;;;6.72;1.73;;;16.00;99.90;;;;;;4990363;28;20121;-59
2022/06/10 06:18:37;;;;;;;5.70;1.67;;;15.90;99.90;;;;;;4992641;28;20031;-58
2022/06/10 06:21:05;;;;;;;7.40;2.35;;;16.00;99.90;;;;;;4994022;28;20049;-58
2022/06/10 06:23:31;;;;;;;4.53;1.98;;;16.00;99.90;;;;;;4993687;28;20478;-58
2022/06/10 06:25:56;;;;;;;5.13;2.17;;;16.00;99.90;;;;;;4991318;28;20084;-58
2022/06/10 06:28:22;;;;;;;10.55;2.17;;;16.00;99.90;;;;;;4989460;28;20378;-57
2022/06/10 06:30:48;;;;;;;7.18;2.45;;;15.90;99.90;;;;;;4993512;28;20050;-58
2022/06/10 06:33:14;;;;;;;6.45;2.72;;;16.10;99.90;;;;;;4991961;28;20023;-60
2022/06/10 06:35:44;;;;;;;4.65;2.25;;;16.20;99.90;;;;;;4993620;28;20034;-58
2022/06/10 06:38:10;;;;;;;7.30;2.10;;;16.30;99.90;;;;;;4989997;28;20117;-58
2022/06/10 06:40:35;;;;;;;6.72;2.03;;;16.20;99.90;;;;;;4992019;28;20125;-60
2022/06/10 06:43:01;;;;;;;4.57;1.65;;;16.20;99.90;;;;;;4993038;28;20065;-58
2022/06/10 06:45:28;;;;;;;4.38;1.80;;;16.10;99.90;;;;;;4987637;28;20573;-57
2022/06/10 06:47:54;;;;;;;4.13;1.45;;;16.20;99.90;;;;;;4988489;28;20029;-58
2022/06/10 06:50:24;;;;;;;9.00;2.17;;;16.20;99.90;;;;;;4990621;28;20026;-59
2022/06/10 06:52:50;;;;;;;5.50;2.00;;;16.20;99.90;;;;;;4993045;28;20084;-58
2022/06/10 06:55:16;;;;;;;8.38;2.28;;;16.20;99.90;;;;;;4990167;28;20382;-58
2022/06/10 06:57:44;;;;;;;9.02;3.53;;;16.30;99.90;;;;;;4992397;28;20026;-58
2022/06/10 07:00:11;;;;;;;10.88;3.40;;;16.40;99.90;;;;;;4991128;28;20030;-58
2022/06/10 07:02:37;;;;;;;10.73;3.55;;;16.50;99.90;;;;;;4985013;28;20038;-59
2022/06/10 07:05:04;;;;;;;7.78;2.55;;;16.60;99.90;;;;;;4988751;28;20030;-58
2022/06/10 07:07:31;;;;;;;11.93;3.55;;;16.60;99.90;;;;;;4992217;28;20034;-57
2022/06/10 07:09:56;;;;;;;13.05;3.90;;;16.70;99.90;;;;;;4992370;28;20419;-57
2022/06/10 07:12:22;;;;;;;16.73;4.22;;;16.70;99.90;;;;;;4988753;28;20026;-58
2022/06/10 07:14:48;;;;;;;12.95;5.22;;;16.70;99.90;;;;;;4991472;28;20039;-58
2022/06/10 07:17:15;;;;;;;12.23;3.55;;;16.90;99.90;;;;;;4990186;28;20030;-57
2022/06/10 07:19:41;;;;;;;13.23;3.45;;;17.20;99.90;;;;;;4991574;28;20022;-58
2022/06/10 07:22:07;;;;;;;10.10;3.45;;;17.30;99.90;;;;;;4989170;28;20442;-58
2022/06/10 07:24:33;;;;;;;14.40;3.15;;;17.20;99.90;;;;;;4991565;28;20045;-59
2022/06/10 07:27:03;;;;;;;11.20;3.38;;;17.30;99.90;;;;;;4986659;28;20030;-59
2022/06/10 07:29:29;;;;;;;12.18;3.70;;;17.40;99.90;;;;;;4988220;28;20058;-58
2022/06/10 07:31:55;;;;;;;7.47;3.00;;;17.40;99.90;;;;;;4987423;28;20516;-58
2022/06/10 07:34:21;;;;;;;8.70;2.60;;;17.30;99.90;;;;;;4989756;28;20049;-58
2022/06/10 07:36:47;;;;;;;16.65;3.90;;;17.20;99.90;;;;;;4991017;28;20065;-58
2022/06/10 07:39:13;;;;;;;12.93;3.55;;;17.10;99.90;;;;;;4990158;28;20058;-58
2022/06/10 07:41:58;;;;;;;13.80;3.22;;;17.10;99.90;;;;;;4989901;28;20125;-60
2022/06/10 07:44:39;;;;;;;14.32;4.20;;;17.00;99.90;;;;;;4980953;28;20058;-58
2022/06/10 07:47:11;;;;;;;14.85;3.92;;;17.00;99.90;;;;;;4987784;28;20077;-58
2022/06/10 07:49:36;;;;;;;10.45;2.97;;;17.20;99.90;;;;;;4991542;28;20022;-58
2022/06/10 07:52:03;;;;;;;9.80;3.03;;;17.30;99.90;;;;;;4974142;28;20406;-58
2022/06/10 07:54:30;;;;;;;11.75;3.83;;;17.40;99.90;;;;;;4991607;28;20565;-57
2022/06/10 07:56:56;;;;;;;14.48;3.40;;;17.30;99.90;;;;;;4988068;28;20034;-58
2022/06/10 07:59:22;;;;;;;18.20;4.68;;;17.40;99.90;;;;;;4985347;28;20037;-58
2022/06/10 08:01:48;;;;;;;22.67;3.42;;;17.50;99.90;;;;;;4991403;28;20060;-58
2022/06/10 08:04:14;;;;;;;16.00;3.60;;;17.50;99.90;;;;;;4989763;28;20034;-57
2022/06/10 08:06:43;;;;;;;14.48;3.55;;;17.60;99.90;;;;;;4990331;28;20033;-58
2022/06/10 08:09:10;;;;;;;11.27;3.00;;;17.80;99.90;;;;;;4989371;28;20022;-57
2022/06/10 08:11:37;;;;;;;12.40;3.28;;;18.00;99.90;;;;;;4990154;28;20026;-58
2022/06/10 08:14:03;;;;;;;18.13;3.55;;;18.10;99.90;;;;;;4991578;28;20058;-61
2022/06/10 08:16:29;;;;;;;17.23;3.78;;;17.90;99.90;;;;;;4989305;28;20092;-58
2022/06/10 08:18:55;;;;;;;15.43;3.17;;;17.60;99.90;;;;;;4983257;28;20022;-58
2022/06/10 08:24:06;;;;;;;19.98;4.28;;;17.70;99.90;;;;;;4985306;28;20533;-58
2022/06/10 08:26:33;;;;;;;19.42;3.90;;;17.70;99.90;;;;;;4990354;28;20034;-58
2022/06/10 08:29:00;;;;;;;18.55;4.00;;;18.00;99.90;;;;;;4988651;28;20030;-59
2022/06/10 08:31:26;;;;;;;17.52;4.18;;;18.20;99.90;;;;;;4989427;28;20034;-58
2022/06/10 08:33:52;;;;;;;17.27;3.30;;;18.20;99.90;;;;;;4987530;28;20080;-58
2022/06/10 08:36:18;;;;;;;14.13;4.95;;;18.10;99.90;;;;;;4988993;28;20117;-57
2022/06/10 08:38:44;;;;;;;18.48;3.60;;;18.10;99.90;;;;;;4989270;28;20065;-57
2022/06/10 08:41:19;;;;;;;23.00;5.03;;;18.10;99.90;;;;;;4988416;28;20447;-57
2022/06/10 08:43:54;;;;;;;20.55;5.18;;;18.40;99.90;;;;;;4986154;28;20045;-57
2022/06/10 08:46:25;;;;;;;20.10;4.72;;;18.60;99.90;;;;;;4987693;28;20478;-57
2022/06/10 08:49:10;;;;;;;13.15;3.17;;;18.70;99.90;;;;;;4989436;28;20038;-57
2022/06/10 08:51:49;;;;;;;17.50;3.30;;;19.00;99.90;;;;;;4983372;28;20034;-59
2022/06/10 08:54:25;;;;;;;18.77;3.97;;;18.80;99.90;;;;;;4986513;28;20026;-58
2022/06/10 08:56:55;;;;;;;19.60;3.85;;;18.60;99.90;;;;;;4987099;28;20031;-59
2022/06/10 08:59:30;;;;;;;17.70;3.85;;;18.80;99.90;;;;;;4988580;28;20034;-57
2022/06/10 09:02:14;;;;;;;26.25;4.50;;;18.80;99.90;;;;;;4990297;28;20041;-59
2022/06/10 09:04:56;;;;;;;23.35;3.78;;;18.60;99.90;;;;;;4987308;28;20077;-58
2022/06/10 09:07:38;;;;;;;22.38;4.05;;;18.70;99.90;;;;;;4979684;28;20475;-58
2022/06/10 09:10:07;;;;;;;11.90;3.38;;;18.60;99.90;;;;;;4988602;28;20037;-58
2022/06/10 09:12:58;;;;;;;14.48;3.58;;;18.60;99.90;;;;;;4988815;28;20438;-58
2022/06/10 09:15:27;;;;;;;16.85;3.90;;;18.60;99.90;;;;;;4988628;28;20057;-58
2022/06/10 09:18:00;;;;;;;16.45;3.45;;;18.40;99.90;;;;;;4990206;28;20478;-59
2022/06/10 09:20:33;;;;;;;21.70;5.47;;;18.30;99.90;;;;;;4980613;28;20030;-58
2022/06/10 09:23:14;;;;;;;16.52;3.88;;;18.50;99.90;;;;;;4990276;28;20034;-58
2022/06/10 09:25:46;;;;;;;19.48;6.22;;;18.40;99.90;;;;;;4989423;28;20054;-59
2022/06/10 09:28:12;;;;;;;17.60;3.95;;;18.60;99.90;;;;;;4987375;28;20356;-59
2022/06/10 09:30:47;;;;;;;14.63;3.72;;;18.50;99.90;;;;;;4982611;28;20030;-57
2022/06/10 09:33:29;;;;;;;17.90;5.07;;;18.60;99.90;;;;;;4986766;28;20471;-58
2022/06/10 09:36:28;;;;;;;20.50;4.32;;;18.60;99.90;;;;;;4983769;28;20023;-58
2022/06/10 09:39:08;;;;;;;16.48;3.22;;;18.70;99.90;;;;;;4983840;28;20423;-58
2022/06/10 09:41:33;;;;;;;20.08;3.78;;;18.90;99.90;;;;;;4981198;28;20031;-58
2022/06/10 09:44:29;;;;;;;19.52;3.40;;;19.10;99.90;;;;;;4988680;28;20536;-57
2022/06/10 09:47:22;;;;;;;16.25;4.07;;;18.90;99.90;;;;;;4986613;28;20030;-59
2022/06/10 09:50:13;;;;;;;16.02;4.70;;;19.10;99.90;;;;;;4983047;28;20034;-57
2022/06/10 09:52:54;;;;;;;21.27;3.80;;;19.10;99.90;;;;;;4987813;28;20030;-58
2022/06/10 09:55:46;;;;;;;11.95;3.67;;;19.10;99.90;;;;;;4987051;28;20306;-58
2022/06/10 09:58:23;;;;;;;18.05;3.13;;;19.10;99.90;;;;;;4970648;28;20051;-58
2022/06/10 10:01:00;;;;;;;18.27;3.92;;;19.10;99.90;;;;;;4979900;28;20522;-58
2022/06/10 10:03:43;;;;;;;19.60;4.45;;;19.20;99.90;;;;;;4972288;28;20065;-58
2022/06/10 10:06:12;;;;;;;15.65;3.63;;;19.10;99.90;;;;;;4972028;28;20034;-58
2022/06/10 10:09:05;;;;;;;13.50;3.20;;;19.30;99.90;;;;;;4981324;28;20463;-58
2022/06/10 10:12:07;;;;;;;17.45;3.33;;;19.30;99.90;;;;;;4968687;28;20487;-58
2022/06/10 10:14:37;;;;;;;15.45;3.80;;;19.40;99.90;;;;;;4971407;28;20072;-59
2022/06/10 10:17:08;;;;;;;18.98;3.60;;;19.40;99.90;;;;;;4974062;28;20061;-58
2022/06/10 10:19:43;;;;;;;13.07;3.20;;;19.60;99.90;;;;;;4975427;28;20034;-58
2022/06/10 10:22:28;;;;;;;14.90;3.28;;;19.80;99.90;;;;;;4972053;28;20468;-58
2022/06/10 10:24:54;;;;;;;12.40;3.13;;;19.90;99.90;;;;;;4986733;28;20069;-58
2022/06/10 10:27:25;;;;;;;19.58;4.38;;;19.70;99.90;;;;;;4972811;28;20053;-58
2022/06/10 10:29:57;;;;;;;16.13;3.13;;;19.60;99.90;;;;;;4983841;28;20050;-58
2022/06/10 10:32:30;;;;;;;17.30;3.65;;;19.50;99.90;;;;;;4963512;28;20030;-58
2022/06/10 10:35:03;;;;;;;13.10;3.47;;;19.70;99.90;;;;;;4986089;28;20041;-58
2022/06/10 10:37:35;;;;;;;20.70;3.75;;;19.90;99.90;;;;;;4979495;28;20121;-58
2022/06/10 10:40:16;;;;;;;16.10;3.22;;;20.40;99.90;;;;;;4988535;28;20422;-59
2022/06/10 10:42:43;;;;;;;16.27;4.28;;;20.10;99.90;;;;;;4988394;28;20054;-59
2022/06/10 10:45:32;;;;;;;17.15;3.65;;;20.10;99.90;;;;;;4987533;28;20114;-59
2022/06/10 10:48:25;;;;;;;19.13;4.85;;;20.50;99.90;;;;;;4988662;28;20030;-59
2022/06/10 10:51:14;;;;;;;16.65;4.60;;;20.60;99.90;;;;;;4983892;28;20030;-58
2022/06/10 10:53:46;;;;;;;16.73;3.47;;;20.30;99.90;;;;;;4975138;28;20035;-58
2022/06/10 10:56:14;;;;;;;20.83;3.13;;;20.40;99.90;;;;;;4986625;28;20479;-58
2022/06/10 10:58:54;;;;;;;20.35;4.10;;;20.10;99.90;;;;;;4991920;28;20378;-58
2022/06/10 11:01:56;;;;;;;14.65;3.40;;;19.80;99.90;;;;;;4985956;28;20356;-58
2022/06/10 11:04:39;;;;;;;18.20;3.92;;;20.30;99.90;;;;;;4910652;29;20028;-58
2022/06/10 11:07:15;;;;;;;14.02;4.07;;;20.70;99.90;;;;;;4912701;29;20493;-58
2022/06/10 11:09:48;;;;;;;17.20;4.35;;;21.10;99.90;;;;;;4913815;29;20393;-59
2022/06/10 11:12:18;;;;;;;18.63;3.92;;;21.00;99.90;;;;;;4911356;29;20575;-59
2022/06/10 11:14:56;;;;;;;16.92;3.72;;;20.80;99.90;;;;;;4912545;29;20103;-58
2022/06/10 11:17:23;;;;;;;19.65;4.22;;;20.70;99.90;;;;;;4912120;29;20521;-58
2022/06/10 11:19:55;;;;;;;17.17;3.78;;;20.90;99.90;;;;;;4913621;29;20047;-59
2022/06/10 11:22:30;;;;;;;19.50;3.97;;;21.50;99.90;;;;;;4911523;29;20042;-59
2022/06/10 11:25:02;;;;;;;16.90;3.28;;;21.60;99.90;;;;;;4912561;29;20048;-58
2022/06/10 11:27:36;;;;;;;15.80;3.38;;;21.70;99.90;;;;;;4911337;29;20028;-59
2022/06/10 11:30:15;;;;;;;16.23;3.40;;;21.10;99.90;;;;;;4913280;29;20068;-58
2022/06/10 11:32:51;;;;;;;22.60;3.47;;;21.40;99.90;;;;;;4912629;29;20046;-58
2022/06/10 11:35:31;;;;;;;22.98;4.07;;;21.40;99.90;;;;;;4910478;29;20392;-58
2022/06/10 11:38:08;;;;;;;15.57;3.90;;;21.50;99.90;;;;;;4941032;28;20053;-58
2022/06/10 11:40:39;;;;;;;15.40;3.83;;;21.90;99.90;;;;;;4980785;28;20030;-60
2022/06/10 11:43:33;;;;;;;15.85;3.22;;;22.30;99.90;;;;;;4991933;28;20113;-59
2022/06/10 11:46:05;;;;;;;15.48;4.05;;;22.00;99.90;;;;;;4986862;28;20494;-59
2022/06/10 11:48:54;;;;;;;19.98;3.40;;;22.50;99.90;;;;;;4985173;28;20041;-60
2022/06/10 11:51:39;;;;;;;16.20;3.60;;;22.90;99.90;;;;;;4986763;28;20499;-58
2022/06/10 11:54:42;;;;;;;18.08;3.53;;;22.50;99.90;;;;;;4992024;28;20026;-58
2022/06/10 12:00:36;;;;;;;22.02;4.18;;;23.10;99.90;;;;;;4979829;28;20057;-58
2022/06/10 12:03:19;;;;;;;22.55;3.60;;;23.50;99.90;;;;;;4949938;28;20479;-57
2022/06/10 12:05:55;;;;;;;19.63;4.53;;;23.70;99.90;;;;;;4983746;28;20034;-59
2022/06/10 12:08:29;;;;;;;17.33;3.72;;;23.30;99.90;;;;;;5003990;28;20022;-58
2022/06/10 12:11:03;;;;;;;18.98;3.17;;;22.80;99.90;;;;;;4987148;28;20023;-58
2022/06/10 12:13:41;;;;;;;19.45;3.17;;;22.30;99.90;;;;;;4989278;28;20394;-57
2022/06/10 12:16:09;;;;;;;19.08;3.25;;;22.40;99.90;;;;;;4982741;28;20029;-58
2022/06/10 12:18:45;;;;;;;19.60;3.60;;;22.40;99.90;;;;;;4990154;28;20036;-57
2022/06/10 12:21:26;;;;;;;21.02;3.83;;;22.20;99.90;;;;;;4984753;28;20513;-57
2022/06/10 12:23:52;;;;;;;17.92;4.13;;;22.50;99.90;;;;;;4986084;28;20441;-58
2022/06/10 12:26:27;;;;;;;16.55;3.33;;;22.20;99.90;;;;;;4987459;28;20121;-59
2022/06/10 12:29:04;;;;;;;15.82;3.75;;;22.00;99.90;;;;;;4990620;28;20026;-58
2022/06/10 12:31:43;;;;;;;15.63;4.05;;;22.10;99.90;;;;;;4989049;28;20026;-59
2022/06/10 12:34:15;;;;;;;22.75;4.07;;;22.10;99.90;;;;;;4978938;28;20033;-58
2022/06/10 12:36:50;;;;;;;13.57;3.13;;;22.20;99.90;;;;;;4990982;28;20471;-59
2022/06/10 12:39:41;;;;;;;22.00;3.50;;;22.10;99.90;;;;;;4988010;28;20018;-58
2022/06/10 12:42:15;;;;;;;19.13;3.70;;;22.70;99.90;;;;;;4981303;28;20046;-59
2022/06/10 12:44:53;;;;;;;22.55;4.38;;;22.40;99.90;;;;;;4987696;28;20034;-57
2022/06/10 12:47:26;;;;;;;14.88;2.90;;;22.60;99.90;;;;;;4985762;28;20542;-58
2022/06/10 12:50:01;;;;;;;17.30;3.35;;;23.50;99.90;;;;;;4989022;28;20026;-58
2022/06/10 12:52:32;;;;;;;18.10;3.78;;;23.30;99.90;;;;;;4988789;28;20057;-58
2022/06/10 12:55:13;;;;;;;18.25;3.40;;;23.20;99.90;;;;;;4990488;28;20077;-57
2022/06/10 12:57:39;;;;;;;17.13;4.20;;;22.50;99.90;;;;;;4986723;28;20027;-58
2022/06/10 13:00:27;;;;;;;12.88;3.58;;;21.90;99.90;;;;;;4990111;28;20038;-59
2022/06/10 13:02:55;;;;;;;18.25;3.85;;;22.30;99.90;;;;;;4985828;28;20172;-60
2022/06/10 13:05:27;;;;;;;13.20;3.30;;;22.90;99.90;;;;;;4986329;28;20026;-57
2022/06/10 13:07:55;;;;;;;20.20;3.10;;;23.30;99.90;;;;;;4988155;28;20125;-58
2022/06/10 13:10:38;;;;;;;13.43;3.58;;;23.50;99.90;;;;;;4988149;28;20502;-59
2022/06/10 13:13:22;;;;;;;20.33;4.13;;;24.20;99.90;;;;;;4983791;28;20034;-58
2022/06/10 13:15:49;;;;;;;17.70;3.92;;;23.60;99.90;;;;;;4984210;28;20536;-57
2022/06/10 13:18:15;;;;;;;23.33;3.80;;;23.50;99.90;;;;;;4980158;28;20417;-58
2022/06/10 13:20:41;;;;;;;19.42;4.13;;;22.90;99.90;;;;;;4997864;28;20050;-58